sensor_id;sensor_type;location;lat;lon;timestamp;temperature;humidity
16404;DHT22;8311;50.158;8.642;2023-07-09T00:02:39;25.30;47.50
16404;DHT22;8311;50.158;8.642;2023-07-09T00:05:33;25.30;47.60
16404;DHT22;8311;50.158;8.642;2023-07-09T00:08:28;25.30;47.50
16404;DHT22;8311;50.158;8.642;2023-07-09T00:11:21;25.30;47.50
16404;DHT22;8311;50.158;8.642;2023-07-09T00:14:16;25.30;47.60
16404;DHT22;8311;50.158;8.642;2023-07-09T00:17:12;25.30;47.60
16404;DHT22;8311;50.158;8.642;2023-07-09T00:20:06;25.30;47.70
16404;DHT22;8311;50.158;8.642;2023-07-09T00:23:06;25.30;47.60
16404;DHT22;8311;50.158;8.642;2023-07-09T00:26:00;25.30;47.60
16404;DHT22;8311;50.158;8.642;2023-07-09T00:28:56;25.30;47.60
16404;DHT22;8311;50.158;8.642;2023-07-09T00:31:49;25.30;47.60
16404;DHT22;8311;50.158;8.642;2023-07-09T00:34:42;25.30;47.70
16404;DHT22;8311;50.158;8.642;2023-07-09T00:37:40;25.20;47.60
16404;DHT22;8311;50.158;8.642;2023-07-09T00:40:36;25.20;47.70
16404;DHT22;8311;50.158;8.642;2023-07-09T00:43:31;25.30;47.80
16404;DHT22;8311;50.158;8.642;2023-07-09T00:50:11;25.20;47.80
16404;DHT22;8311;50.158;8.642;2023-07-09T00:53:15;25.30;48.00
16404;DHT22;8311;50.158;8.642;2023-07-09T00:56:15;25.20;47.90
16404;DHT22;8311;50.158;8.642;2023-07-09T00:59:15;25.20;48.00
16404;DHT22;8311;50.158;8.642;2023-07-09T01:02:10;25.20;48.00
16404;DHT22;8311;50.158;8.642;2023-07-09T01:05:04;25.20;48.10
16404;DHT22;8311;50.158;8.642;2023-07-09T01:07:58;25.20;48.20
16404;DHT22;8311;50.158;8.642;2023-07-09T01:10:51;25.20;48.20
16404;DHT22;8311;50.158;8.642;2023-07-09T01:13:45;25.20;48.20
16404;DHT22;8311;50.158;8.642;2023-07-09T01:16:42;25.20;48.30
16404;DHT22;8311;50.158;8.642;2023-07-09T01:19:40;25.20;48.30
16404;DHT22;8311;50.158;8.642;2023-07-09T01:22:36;25.20;48.30
16404;DHT22;8311;50.158;8.642;2023-07-09T01:25:30;25.20;48.40
16404;DHT22;8311;50.158;8.642;2023-07-09T01:28:23;25.20;48.50
16404;DHT22;8311;50.158;8.642;2023-07-09T01:31:17;25.20;48.60
16404;DHT22;8311;50.158;8.642;2023-07-09T01:34:10;25.20;48.60
16404;DHT22;8311;50.158;8.642;2023-07-09T01:37:04;25.20;48.60
16404;DHT22;8311;50.158;8.642;2023-07-09T01:39:58;25.20;48.50
16404;DHT22;8311;50.158;8.642;2023-07-09T01:42:51;25.20;48.60
16404;DHT22;8311;50.158;8.642;2023-07-09T01:45:44;25.20;48.60
16404;DHT22;8311;50.158;8.642;2023-07-09T01:48:41;25.20;48.60
16404;DHT22;8311;50.158;8.642;2023-07-09T01:51:34;25.20;48.50
16404;DHT22;8311;50.158;8.642;2023-07-09T01:54:30;25.20;48.30
16404;DHT22;8311;50.158;8.642;2023-07-09T01:57:26;25.20;48.00
16404;DHT22;8311;50.158;8.642;2023-07-09T02:00:24;25.20;47.90
16404;DHT22;8311;50.158;8.642;2023-07-09T02:03:17;25.20;47.90
16404;DHT22;8311;50.158;8.642;2023-07-09T02:06:10;25.10;47.80
16404;DHT22;8311;50.158;8.642;2023-07-09T02:09:07;25.20;47.90
16404;DHT22;8311;50.158;8.642;2023-07-09T02:12:00;25.20;47.90
16404;DHT22;8311;50.158;8.642;2023-07-09T02:14:55;25.20;47.90
16404;DHT22;8311;50.158;8.642;2023-07-09T02:17:49;25.20;47.90
16404;DHT22;8311;50.158;8.642;2023-07-09T02:20:45;25.20;48.00
16404;DHT22;8311;50.158;8.642;2023-07-09T02:23:38;25.10;48.00
16404;DHT22;8311;50.158;8.642;2023-07-09T02:26:31;25.10;48.10
16404;DHT22;8311;50.158;8.642;2023-07-09T02:29:25;25.10;48.10
16404;DHT22;8311;50.158;8.642;2023-07-09T02:32:21;25.10;48.10
16404;DHT22;8311;50.158;8.642;2023-07-09T02:35:15;25.10;48.10
16404;DHT22;8311;50.158;8.642;2023-07-09T02:38:08;25.10;48.20
16404;DHT22;8311;50.158;8.642;2023-07-09T02:41:01;25.10;48.20
16404;DHT22;8311;50.158;8.642;2023-07-09T02:43:54;25.10;48.20
16404;DHT22;8311;50.158;8.642;2023-07-09T02:46:47;25.10;48.20
16404;DHT22;8311;50.158;8.642;2023-07-09T02:49:42;25.10;48.20
16404;DHT22;8311;50.158;8.642;2023-07-09T02:52:35;25.10;48.20
16404;DHT22;8311;50.158;8.642;2023-07-09T02:55:28;25.10;48.20
16404;DHT22;8311;50.158;8.642;2023-07-09T02:58:22;25.10;48.20
16404;DHT22;8311;50.158;8.642;2023-07-09T03:01:15;25.10;48.20
16404;DHT22;8311;50.158;8.642;2023-07-09T03:04:09;25.10;48.20
16404;DHT22;8311;50.158;8.642;2023-07-09T03:07:05;25.10;48.10
16404;DHT22;8311;50.158;8.642;2023-07-09T03:09:58;25.10;48.80
16404;DHT22;8311;50.158;8.642;2023-07-09T03:12:51;25.10;48.20
16404;DHT22;8311;50.158;8.642;2023-07-09T03:15:54;25.10;48.20
16404;DHT22;8311;50.158;8.642;2023-07-09T03:18:47;25.10;48.30
16404;DHT22;8311;50.158;8.642;2023-07-09T03:21:41;25.10;48.30
16404;DHT22;8311;50.158;8.642;2023-07-09T03:24:35;25.10;48.30
16404;DHT22;8311;50.158;8.642;2023-07-09T03:27:30;25.00;48.30
16404;DHT22;8311;50.158;8.642;2023-07-09T03:30:23;25.00;48.30
16404;DHT22;8311;50.158;8.642;2023-07-09T03:33:16;25.00;48.40
16404;DHT22;8311;50.158;8.642;2023-07-09T03:36:10;25.00;48.40
16404;DHT22;8311;50.158;8.642;2023-07-09T03:39:05;25.00;48.40
16404;DHT22;8311;50.158;8.642;2023-07-09T03:42:00;25.00;48.40
16404;DHT22;8311;50.158;8.642;2023-07-09T03:44:53;25.00;48.50
16404;DHT22;8311;50.158;8.642;2023-07-09T03:47:46;25.00;48.50
16404;DHT22;8311;50.158;8.642;2023-07-09T03:50:39;25.00;48.50
16404;DHT22;8311;50.158;8.642;2023-07-09T03:53:33;25.00;48.50
16404;DHT22;8311;50.158;8.642;2023-07-09T03:56:26;25.00;48.50
16404;DHT22;8311;50.158;8.642;2023-07-09T03:59:20;25.00;48.50
16404;DHT22;8311;50.158;8.642;2023-07-09T04:02:14;25.00;48.30
16404;DHT22;8311;50.158;8.642;2023-07-09T04:05:10;25.00;48.30
16404;DHT22;8311;50.158;8.642;2023-07-09T04:08:03;25.00;48.30
16404;DHT22;8311;50.158;8.642;2023-07-09T04:10:59;25.00;48.30
16404;DHT22;8311;50.158;8.642;2023-07-09T04:13:52;25.00;48.40
16404;DHT22;8311;50.158;8.642;2023-07-09T04:16:47;25.00;48.40
16404;DHT22;8311;50.158;8.642;2023-07-09T04:19:40;25.00;48.60
16404;DHT22;8311;50.158;8.642;2023-07-09T04:22:33;25.00;48.70
16404;DHT22;8311;50.158;8.642;2023-07-09T04:25:26;25.00;48.60
16404;DHT22;8311;50.158;8.642;2023-07-09T04:28:19;25.00;48.70
16404;DHT22;8311;50.158;8.642;2023-07-09T04:31:12;25.00;48.60
16404;DHT22;8311;50.158;8.642;2023-07-09T04:34:07;25.00;48.60
16404;DHT22;8311;50.158;8.642;2023-07-09T04:37:00;25.00;48.70
16404;DHT22;8311;50.158;8.642;2023-07-09T04:39:53;25.00;48.70
16404;DHT22;8311;50.158;8.642;2023-07-09T04:42:46;25.00;48.70
16404;DHT22;8311;50.158;8.642;2023-07-09T04:45:39;25.00;48.80
16404;DHT22;8311;50.158;8.642;2023-07-09T04:48:33;25.00;49.00
16404;DHT22;8311;50.158;8.642;2023-07-09T04:51:27;25.00;49.10
16404;DHT22;8311;50.158;8.642;2023-07-09T04:54:20;25.00;49.10
16404;DHT22;8311;50.158;8.642;2023-07-09T04:57:14;25.00;49.00
16404;DHT22;8311;50.158;8.642;2023-07-09T05:00:09;25.00;49.00
16404;DHT22;8311;50.158;8.642;2023-07-09T05:03:03;25.00;49.00
16404;DHT22;8311;50.158;8.642;2023-07-09T05:05:57;25.00;48.90
16404;DHT22;8311;50.158;8.642;2023-07-09T05:08:52;25.00;48.70
16404;DHT22;8311;50.158;8.642;2023-07-09T05:11:46;25.00;48.60
16404;DHT22;8311;50.158;8.642;2023-07-09T05:14:39;25.00;48.60
16404;DHT22;8311;50.158;8.642;2023-07-09T05:17:33;25.00;48.60
16404;DHT22;8311;50.158;8.642;2023-07-09T05:20:27;25.00;48.70
16404;DHT22;8311;50.158;8.642;2023-07-09T05:23:20;25.00;48.70
16404;DHT22;8311;50.158;8.642;2023-07-09T05:26:15;25.00;48.90
16404;DHT22;8311;50.158;8.642;2023-07-09T05:29:08;25.00;48.90
16404;DHT22;8311;50.158;8.642;2023-07-09T05:32:01;25.00;49.10
16404;DHT22;8311;50.158;8.642;2023-07-09T05:34:57;25.00;49.10
16404;DHT22;8311;50.158;8.642;2023-07-09T05:37:50;25.10;49.20
16404;DHT22;8311;50.158;8.642;2023-07-09T05:40:44;25.00;49.20
16404;DHT22;8311;50.158;8.642;2023-07-09T05:43:39;25.10;49.50
16404;DHT22;8311;50.158;8.642;2023-07-09T05:46:34;25.10;49.20
16404;DHT22;8311;50.158;8.642;2023-07-09T05:49:30;25.10;49.60
16404;DHT22;8311;50.158;8.642;2023-07-09T05:52:23;25.10;49.30
16404;DHT22;8311;50.158;8.642;2023-07-09T05:55:17;25.10;49.60
16404;DHT22;8311;50.158;8.642;2023-07-09T05:58:10;25.10;49.30
16404;DHT22;8311;50.158;8.642;2023-07-09T06:01:05;25.10;49.30
16404;DHT22;8311;50.158;8.642;2023-07-09T06:03:58;25.10;49.70
16404;DHT22;8311;50.158;8.642;2023-07-09T06:06:51;25.10;49.60
16404;DHT22;8311;50.158;8.642;2023-07-09T06:09:45;25.10;49.60
16404;DHT22;8311;50.158;8.642;2023-07-09T06:12:39;25.10;48.90
16404;DHT22;8311;50.158;8.642;2023-07-09T06:15:33;25.10;49.50
16404;DHT22;8311;50.158;8.642;2023-07-09T06:18:28;25.10;49.30
16404;DHT22;8311;50.158;8.642;2023-07-09T06:21:22;25.10;50.00
16404;DHT22;8311;50.158;8.642;2023-07-09T06:24:21;25.10;50.30
16404;DHT22;8311;50.158;8.642;2023-07-09T06:27:14;25.00;50.00
16404;DHT22;8311;50.158;8.642;2023-07-09T06:30:08;25.10;49.60
16404;DHT22;8311;50.158;8.642;2023-07-09T06:33:01;25.10;49.70
16404;DHT22;8311;50.158;8.642;2023-07-09T06:35:58;25.10;50.80
16404;DHT22;8311;50.158;8.642;2023-07-09T06:38:52;25.10;50.90
16404;DHT22;8311;50.158;8.642;2023-07-09T06:41:45;25.10;50.80
16404;DHT22;8311;50.158;8.642;2023-07-09T06:44:40;25.10;50.60
16404;DHT22;8311;50.158;8.642;2023-07-09T06:47:33;25.10;50.50
16404;DHT22;8311;50.158;8.642;2023-07-09T06:50:26;25.10;50.70
16404;DHT22;8311;50.158;8.642;2023-07-09T06:53:23;25.10;50.60
16404;DHT22;8311;50.158;8.642;2023-07-09T06:56:16;25.10;51.20
16404;DHT22;8311;50.158;8.642;2023-07-09T06:59:09;25.20;51.10
16404;DHT22;8311;50.158;8.642;2023-07-09T07:02:02;25.20;51.10
16404;DHT22;8311;50.158;8.642;2023-07-09T07:04:57;25.20;51.10
16404;DHT22;8311;50.158;8.642;2023-07-09T07:07:49;25.20;50.90
16404;DHT22;8311;50.158;8.642;2023-07-09T07:10:44;25.20;51.00
16404;DHT22;8311;50.158;8.642;2023-07-09T07:13:40;25.20;50.80
16404;DHT22;8311;50.158;8.642;2023-07-09T07:16:35;25.20;50.70
16404;DHT22;8311;50.158;8.642;2023-07-09T07:19:27;25.30;50.70
16404;DHT22;8311;50.158;8.642;2023-07-09T07:22:21;25.30;50.60
16404;DHT22;8311;50.158;8.642;2023-07-09T07:25:15;25.30;50.70
16404;DHT22;8311;50.158;8.642;2023-07-09T07:28:10;25.40;50.80
16404;DHT22;8311;50.158;8.642;2023-07-09T07:31:04;25.40;50.70
16404;DHT22;8311;50.158;8.642;2023-07-09T07:33:59;25.40;50.60
16404;DHT22;8311;50.158;8.642;2023-07-09T07:36:52;25.40;50.50
16404;DHT22;8311;50.158;8.642;2023-07-09T07:39:46;25.40;50.50
16404;DHT22;8311;50.158;8.642;2023-07-09T07:42:40;25.50;50.50
16404;DHT22;8311;50.158;8.642;2023-07-09T07:45:35;25.50;50.30
16404;DHT22;8311;50.158;8.642;2023-07-09T07:48:28;25.50;50.50
16404;DHT22;8311;50.158;8.642;2023-07-09T07:51:21;25.60;50.30
16404;DHT22;8311;50.158;8.642;2023-07-09T07:54:14;25.60;50.40
16404;DHT22;8311;50.158;8.642;2023-07-09T07:57:09;25.60;50.50
16404;DHT22;8311;50.158;8.642;2023-07-09T08:00:05;25.70;50.30
16404;DHT22;8311;50.158;8.642;2023-07-09T08:03:00;25.70;50.10
16404;DHT22;8311;50.158;8.642;2023-07-09T08:05:53;25.70;50.00
16404;DHT22;8311;50.158;8.642;2023-07-09T08:08:47;25.80;50.10
16404;DHT22;8311;50.158;8.642;2023-07-09T08:11:40;25.80;50.30
16404;DHT22;8311;50.158;8.642;2023-07-09T08:14:32;25.80;50.10
16404;DHT22;8311;50.158;8.642;2023-07-09T08:17:26;25.90;50.30
16404;DHT22;8311;50.158;8.642;2023-07-09T08:20:20;25.90;50.10
16404;DHT22;8311;50.158;8.642;2023-07-09T08:23:14;26.00;50.00
16404;DHT22;8311;50.158;8.642;2023-07-09T08:26:07;26.00;49.90
16404;DHT22;8311;50.158;8.642;2023-07-09T08:29:01;26.00;49.70
16404;DHT22;8311;50.158;8.642;2023-07-09T08:31:54;26.10;49.60
16404;DHT22;8311;50.158;8.642;2023-07-09T08:34:47;26.10;49.50
16404;DHT22;8311;50.158;8.642;2023-07-09T08:38:02;26.10;49.30
16404;DHT22;8311;50.158;8.642;2023-07-09T08:40:58;26.10;49.30
16404;DHT22;8311;50.158;8.642;2023-07-09T08:43:59;26.10;49.30
16404;DHT22;8311;50.158;8.642;2023-07-09T08:47:00;26.20;49.10
16404;DHT22;8311;50.158;8.642;2023-07-09T08:49:59;26.20;48.90
16404;DHT22;8311;50.158;8.642;2023-07-09T08:52:53;26.20;49.00
16404;DHT22;8311;50.158;8.642;2023-07-09T08:55:50;26.20;49.20
16404;DHT22;8311;50.158;8.642;2023-07-09T08:58:44;26.30;49.40
16404;DHT22;8311;50.158;8.642;2023-07-09T09:01:41;26.30;49.30
16404;DHT22;8311;50.158;8.642;2023-07-09T09:04:38;26.40;49.40
16404;DHT22;8311;50.158;8.642;2023-07-09T09:07:39;26.40;49.20
16404;DHT22;8311;50.158;8.642;2023-07-09T09:10:37;26.50;49.10
16404;DHT22;8311;50.158;8.642;2023-07-09T09:13:36;26.50;49.20
16404;DHT22;8311;50.158;8.642;2023-07-09T09:16:33;26.50;49.00
16404;DHT22;8311;50.158;8.642;2023-07-09T09:19:32;26.60;48.80
16404;DHT22;8311;50.158;8.642;2023-07-09T09:22:42;26.60;48.80
16404;DHT22;8311;50.158;8.642;2023-07-09T09:25:39;26.70;49.10
16404;DHT22;8311;50.158;8.642;2023-07-09T09:28:36;26.70;48.90
16404;DHT22;8311;50.158;8.642;2023-07-09T09:31:30;26.70;48.90
16404;DHT22;8311;50.158;8.642;2023-07-09T09:34:26;26.70;49.10
16404;DHT22;8311;50.158;8.642;2023-07-09T09:37:28;26.70;49.00
16404;DHT22;8311;50.158;8.642;2023-07-09T09:40:22;26.80;48.90
16404;DHT22;8311;50.158;8.642;2023-07-09T09:43:18;26.80;48.90
16404;DHT22;8311;50.158;8.642;2023-07-09T09:46:22;26.80;48.80
16404;DHT22;8311;50.158;8.642;2023-07-09T09:49:16;26.90;48.80
16404;DHT22;8311;50.158;8.642;2023-07-09T09:52:12;26.90;48.70
16404;DHT22;8311;50.158;8.642;2023-07-09T09:55:11;26.90;48.90
16404;DHT22;8311;50.158;8.642;2023-07-09T09:58:13;27.00;48.50
16404;DHT22;8311;50.158;8.642;2023-07-09T10:01:14;27.00;48.50
16404;DHT22;8311;50.158;8.642;2023-07-09T10:04:16;27.10;48.20
16404;DHT22;8311;50.158;8.642;2023-07-09T10:07:18;27.00;48.10
16404;DHT22;8311;50.158;8.642;2023-07-09T10:10:14;27.10;47.90
16404;DHT22;8311;50.158;8.642;2023-07-09T10:13:17;27.10;48.20
16404;DHT22;8311;50.158;8.642;2023-07-09T10:16:19;27.10;48.50
16404;DHT22;8311;50.158;8.642;2023-07-09T10:19:20;27.10;49.00
16404;DHT22;8311;50.158;8.642;2023-07-09T10:22:24;27.20;48.60
16404;DHT22;8311;50.158;8.642;2023-07-09T10:25:30;27.20;48.30
16404;DHT22;8311;50.158;8.642;2023-07-09T10:28:54;27.20;48.00
16404;DHT22;8311;50.158;8.642;2023-07-09T10:31:58;27.20;48.20
16404;DHT22;8311;50.158;8.642;2023-07-09T10:34:57;27.20;48.20
16404;DHT22;8311;50.158;8.642;2023-07-09T10:38:07;27.30;48.10
16404;DHT22;8311;50.158;8.642;2023-07-09T10:41:09;27.30;48.10
16404;DHT22;8311;50.158;8.642;2023-07-09T10:44:21;27.40;47.90
16404;DHT22;8311;50.158;8.642;2023-07-09T10:47:27;27.20;48.40
16404;DHT22;8311;50.158;8.642;2023-07-09T10:50:27;27.10;48.70
16404;DHT22;8311;50.158;8.642;2023-07-09T10:53:29;27.00;48.70
16404;DHT22;8311;50.158;8.642;2023-07-09T10:56:27;26.90;48.90
16404;DHT22;8311;50.158;8.642;2023-07-09T10:59:25;26.90;49.00
16404;DHT22;8311;50.158;8.642;2023-07-09T11:02:23;26.80;49.10
16404;DHT22;8311;50.158;8.642;2023-07-09T11:05:17;26.70;49.10
16404;DHT22;8311;50.158;8.642;2023-07-09T11:08:14;26.70;49.20
16404;DHT22;8311;50.158;8.642;2023-07-09T11:11:13;26.70;49.20
16404;DHT22;8311;50.158;8.642;2023-07-09T11:14:21;26.70;49.30
16404;DHT22;8311;50.158;8.642;2023-07-09T11:17:18;26.60;49.30
16404;DHT22;8311;50.158;8.642;2023-07-09T11:20:19;26.60;49.30
16404;DHT22;8311;50.158;8.642;2023-07-09T11:23:20;26.60;49.30
16404;DHT22;8311;50.158;8.642;2023-07-09T11:26:23;26.50;49.30
16404;DHT22;8311;50.158;8.642;2023-07-09T11:29:17;26.60;49.80
16404;DHT22;8311;50.158;8.642;2023-07-09T11:32:18;26.60;50.30
16404;DHT22;8311;50.158;8.642;2023-07-09T11:35:21;26.50;50.10
16404;DHT22;8311;50.158;8.642;2023-07-09T11:38:19;26.50;50.10
16404;DHT22;8311;50.158;8.642;2023-07-09T11:41:26;26.50;50.10
16404;DHT22;8311;50.158;8.642;2023-07-09T11:44:21;26.50;50.10
16404;DHT22;8311;50.158;8.642;2023-07-09T11:47:19;26.50;50.00
16404;DHT22;8311;50.158;8.642;2023-07-09T11:50:22;26.50;50.00
16404;DHT22;8311;50.158;8.642;2023-07-09T11:53:28;26.50;50.00
16404;DHT22;8311;50.158;8.642;2023-07-09T11:56:24;26.40;49.90
16404;DHT22;8311;50.158;8.642;2023-07-09T11:59:17;26.40;49.90
16404;DHT22;8311;50.158;8.642;2023-07-09T12:02:16;26.40;49.90
16404;DHT22;8311;50.158;8.642;2023-07-09T12:05:10;26.40;49.90
16404;DHT22;8311;50.158;8.642;2023-07-09T12:08:07;26.40;49.90
16404;DHT22;8311;50.158;8.642;2023-07-09T12:11:02;26.40;49.80
16404;DHT22;8311;50.158;8.642;2023-07-09T12:14:01;26.40;49.80
16404;DHT22;8311;50.158;8.642;2023-07-09T12:16:55;26.40;49.80
16404;DHT22;8311;50.158;8.642;2023-07-09T12:19:51;26.40;49.80
16404;DHT22;8311;50.158;8.642;2023-07-09T12:22:45;26.40;49.80
16404;DHT22;8311;50.158;8.642;2023-07-09T12:25:38;26.40;49.70
16404;DHT22;8311;50.158;8.642;2023-07-09T12:28:33;26.40;49.70
16404;DHT22;8311;50.158;8.642;2023-07-09T12:31:28;26.40;49.80
16404;DHT22;8311;50.158;8.642;2023-07-09T12:34:22;26.40;49.80
16404;DHT22;8311;50.158;8.642;2023-07-09T12:37:20;26.40;49.80
16404;DHT22;8311;50.158;8.642;2023-07-09T12:40:19;26.40;49.70
16404;DHT22;8311;50.158;8.642;2023-07-09T12:43:24;26.40;49.70
16404;DHT22;8311;50.158;8.642;2023-07-09T12:46:20;26.40;49.70
16404;DHT22;8311;50.158;8.642;2023-07-09T12:49:22;26.40;49.70
16404;DHT22;8311;50.158;8.642;2023-07-09T12:52:19;26.40;49.70
16404;DHT22;8311;50.158;8.642;2023-07-09T12:55:20;26.40;49.70
16404;DHT22;8311;50.158;8.642;2023-07-09T12:58:18;26.30;49.60
16404;DHT22;8311;50.158;8.642;2023-07-09T13:01:15;26.40;49.70
16404;DHT22;8311;50.158;8.642;2023-07-09T13:04:11;26.40;49.70
16404;DHT22;8311;50.158;8.642;2023-07-09T13:07:17;26.40;49.70
16404;DHT22;8311;50.158;8.642;2023-07-09T13:10:17;26.40;49.70
16404;DHT22;8311;50.158;8.642;2023-07-09T13:13:13;26.40;49.80
16404;DHT22;8311;50.158;8.642;2023-07-09T13:16:07;26.40;49.70
16404;DHT22;8311;50.158;8.642;2023-07-09T13:19:00;26.30;49.60
16404;DHT22;8311;50.158;8.642;2023-07-09T13:21:54;26.30;49.60
16404;DHT22;8311;50.158;8.642;2023-07-09T13:24:48;26.30;49.60
16404;DHT22;8311;50.158;8.642;2023-07-09T13:27:41;26.30;49.60
16404;DHT22;8311;50.158;8.642;2023-07-09T13:30:35;26.30;49.60
16404;DHT22;8311;50.158;8.642;2023-07-09T13:33:29;26.40;49.70
16404;DHT22;8311;50.158;8.642;2023-07-09T13:36:22;26.30;49.60
16404;DHT22;8311;50.158;8.642;2023-07-09T13:39:18;26.30;49.60
16404;DHT22;8311;50.158;8.642;2023-07-09T13:42:14;26.30;49.60
16404;DHT22;8311;50.158;8.642;2023-07-09T13:45:17;26.30;49.60
16404;DHT22;8311;50.158;8.642;2023-07-09T13:48:16;26.30;49.60
16404;DHT22;8311;50.158;8.642;2023-07-09T13:51:15;26.30;49.60
16404;DHT22;8311;50.158;8.642;2023-07-09T13:54:17;26.40;49.70
16404;DHT22;8311;50.158;8.642;2023-07-09T13:57:14;26.30;49.60
16404;DHT22;8311;50.158;8.642;2023-07-09T14:00:10;26.30;49.60
16404;DHT22;8311;50.158;8.642;2023-07-09T14:03:09;26.30;49.60
16404;DHT22;8311;50.158;8.642;2023-07-09T14:06:09;26.30;49.60
16404;DHT22;8311;50.158;8.642;2023-07-09T14:09:03;26.40;49.60
16404;DHT22;8311;50.158;8.642;2023-07-09T14:11:59;26.30;49.60
16404;DHT22;8311;50.158;8.642;2023-07-09T14:14:56;26.30;49.60
16404;DHT22;8311;50.158;8.642;2023-07-09T14:17:50;26.30;49.60
16404;DHT22;8311;50.158;8.642;2023-07-09T14:20:44;26.40;49.70
16404;DHT22;8311;50.158;8.642;2023-07-09T14:23:38;26.30;50.20
16404;DHT22;8311;50.158;8.642;2023-07-09T14:26:31;26.40;49.60
16404;DHT22;8311;50.158;8.642;2023-07-09T14:29:25;26.40;49.60
16404;DHT22;8311;50.158;8.642;2023-07-09T14:32:32;26.30;49.50
16404;DHT22;8311;50.158;8.642;2023-07-09T14:35:26;26.40;49.60
16404;DHT22;8311;50.158;8.642;2023-07-09T14:38:23;26.40;49.60
16404;DHT22;8311;50.158;8.642;2023-07-09T14:41:20;26.40;49.60
16404;DHT22;8311;50.158;8.642;2023-07-09T14:44:27;26.40;49.60
16404;DHT22;8311;50.158;8.642;2023-07-09T14:47:21;26.40;49.60
16404;DHT22;8311;50.158;8.642;2023-07-09T14:50:15;26.40;49.60
16404;DHT22;8311;50.158;8.642;2023-07-09T14:53:19;26.40;49.60
16404;DHT22;8311;50.158;8.642;2023-07-09T14:56:14;26.40;49.60
16404;DHT22;8311;50.158;8.642;2023-07-09T14:59:07;26.40;49.60
16404;DHT22;8311;50.158;8.642;2023-07-09T15:02:08;26.40;49.60
16404;DHT22;8311;50.158;8.642;2023-07-09T15:05:04;26.40;49.70
16404;DHT22;8311;50.158;8.642;2023-07-09T15:07:58;26.40;49.70
16404;DHT22;8311;50.158;8.642;2023-07-09T15:10:53;26.40;49.70
16404;DHT22;8311;50.158;8.642;2023-07-09T15:13:48;26.40;49.70
16404;DHT22;8311;50.158;8.642;2023-07-09T15:16:41;26.40;49.90
16404;DHT22;8311;50.158;8.642;2023-07-09T15:19:36;26.40;50.10
16404;DHT22;8311;50.158;8.642;2023-07-09T15:22:32;26.40;50.40
16404;DHT22;8311;50.158;8.642;2023-07-09T15:25:27;26.40;50.60
16404;DHT22;8311;50.158;8.642;2023-07-09T15:28:21;26.40;50.60
16404;DHT22;8311;50.158;8.642;2023-07-09T15:31:17;26.40;50.40
16404;DHT22;8311;50.158;8.642;2023-07-09T15:34:10;26.40;50.40
16404;DHT22;8311;50.158;8.642;2023-07-09T15:37:11;26.40;50.40
16404;DHT22;8311;50.158;8.642;2023-07-09T15:40:17;26.40;50.30
16404;DHT22;8311;50.158;8.642;2023-07-09T15:43:11;26.40;50.30
16404;DHT22;8311;50.158;8.642;2023-07-09T15:46:05;26.40;50.20
16404;DHT22;8311;50.158;8.642;2023-07-09T15:48:58;26.40;50.20
16404;DHT22;8311;50.158;8.642;2023-07-09T15:51:51;26.40;50.20
16404;DHT22;8311;50.158;8.642;2023-07-09T15:54:46;26.40;50.10
16404;DHT22;8311;50.158;8.642;2023-07-09T15:57:39;26.40;50.10
16404;DHT22;8311;50.158;8.642;2023-07-09T16:00:34;26.40;50.10
16404;DHT22;8311;50.158;8.642;2023-07-09T16:03:29;26.40;50.10
16404;DHT22;8311;50.158;8.642;2023-07-09T16:06:23;26.40;50.00
16404;DHT22;8311;50.158;8.642;2023-07-09T16:09:16;26.40;50.00
16404;DHT22;8311;50.158;8.642;2023-07-09T16:12:12;26.40;50.00
16404;DHT22;8311;50.158;8.642;2023-07-09T16:15:08;26.40;50.00
16404;DHT22;8311;50.158;8.642;2023-07-09T16:18:04;26.40;49.90
16404;DHT22;8311;50.158;8.642;2023-07-09T16:21:01;26.40;49.90
16404;DHT22;8311;50.158;8.642;2023-07-09T16:23:55;26.40;49.90
16404;DHT22;8311;50.158;8.642;2023-07-09T16:26:49;26.40;49.90
16404;DHT22;8311;50.158;8.642;2023-07-09T16:29:43;26.50;50.00
16404;DHT22;8311;50.158;8.642;2023-07-09T16:32:37;26.40;49.90
16404;DHT22;8311;50.158;8.642;2023-07-09T16:35:31;26.50;49.90
16404;DHT22;8311;50.158;8.642;2023-07-09T16:38:25;26.50;49.90
16404;DHT22;8311;50.158;8.642;2023-07-09T16:41:18;26.40;49.80
16404;DHT22;8311;50.158;8.642;2023-07-09T16:44:12;26.50;49.90
16404;DHT22;8311;50.158;8.642;2023-07-09T16:47:14;26.50;49.90
16404;DHT22;8311;50.158;8.642;2023-07-09T16:50:12;26.50;49.80
16404;DHT22;8311;50.158;8.642;2023-07-09T16:53:10;26.50;49.80
16404;DHT22;8311;50.158;8.642;2023-07-09T16:56:04;26.50;49.80
16404;DHT22;8311;50.158;8.642;2023-07-09T16:58:58;26.40;50.40
16404;DHT22;8311;50.158;8.642;2023-07-09T17:01:51;26.50;49.90
16404;DHT22;8311;50.158;8.642;2023-07-09T17:04:45;26.50;49.80
16404;DHT22;8311;50.158;8.642;2023-07-09T17:07:39;26.40;49.80
16404;DHT22;8311;50.158;8.642;2023-07-09T17:10:32;26.40;49.80
16404;DHT22;8311;50.158;8.642;2023-07-09T17:13:26;26.50;49.80
16404;DHT22;8311;50.158;8.642;2023-07-09T17:16:20;26.50;49.80
16404;DHT22;8311;50.158;8.642;2023-07-09T17:19:13;26.50;49.80
16404;DHT22;8311;50.158;8.642;2023-07-09T17:22:16;26.50;49.80
16404;DHT22;8311;50.158;8.642;2023-07-09T17:25:28;26.50;49.80
16404;DHT22;8311;50.158;8.642;2023-07-09T17:28:23;26.50;49.80
16404;DHT22;8311;50.158;8.642;2023-07-09T17:31:17;26.50;49.80
16404;DHT22;8311;50.158;8.642;2023-07-09T17:34:10;26.50;49.80
16404;DHT22;8311;50.158;8.642;2023-07-09T17:37:04;26.50;49.80
16404;DHT22;8311;50.158;8.642;2023-07-09T17:39:59;26.50;49.80
16404;DHT22;8311;50.158;8.642;2023-07-09T17:42:53;26.50;49.80
16404;DHT22;8311;50.158;8.642;2023-07-09T17:45:47;26.50;49.70
16404;DHT22;8311;50.158;8.642;2023-07-09T17:48:42;26.50;49.80
16404;DHT22;8311;50.158;8.642;2023-07-09T17:51:35;26.50;49.80
16404;DHT22;8311;50.158;8.642;2023-07-09T17:54:28;26.50;49.70
16404;DHT22;8311;50.158;8.642;2023-07-09T17:57:25;26.50;49.70
16404;DHT22;8311;50.158;8.642;2023-07-09T18:00:22;26.50;49.70
16404;DHT22;8311;50.158;8.642;2023-07-09T18:03:15;26.50;49.80
16404;DHT22;8311;50.158;8.642;2023-07-09T18:06:13;26.50;49.70
16404;DHT22;8311;50.158;8.642;2023-07-09T18:09:07;26.50;49.70
16404;DHT22;8311;50.158;8.642;2023-07-09T18:12:00;26.50;49.70
16404;DHT22;8311;50.158;8.642;2023-07-09T18:14:57;26.50;49.70
16404;DHT22;8311;50.158;8.642;2023-07-09T18:17:52;26.50;49.70
16404;DHT22;8311;50.158;8.642;2023-07-09T18:20:45;26.50;49.70
16404;DHT22;8311;50.158;8.642;2023-07-09T18:23:39;26.50;49.70
16404;DHT22;8311;50.158;8.642;2023-07-09T18:26:32;26.50;49.70
16404;DHT22;8311;50.158;8.642;2023-07-09T18:29:29;26.50;49.70
16404;DHT22;8311;50.158;8.642;2023-07-09T18:32:26;26.50;49.70
16404;DHT22;8311;50.158;8.642;2023-07-09T18:35:27;26.50;49.70
16404;DHT22;8311;50.158;8.642;2023-07-09T18:38:21;26.50;49.70
16404;DHT22;8311;50.158;8.642;2023-07-09T18:41:16;26.50;49.70
16404;DHT22;8311;50.158;8.642;2023-07-09T18:44:15;26.50;49.80
16404;DHT22;8311;50.158;8.642;2023-07-09T18:47:10;26.60;49.80
16404;DHT22;8311;50.158;8.642;2023-07-09T18:50:12;26.60;49.80
16404;DHT22;8311;50.158;8.642;2023-07-09T18:53:11;26.50;49.70